• Join FlightAware (Why Join?)
  • Login
  • US Flag 
08:13AM EDT


 

Airport Tracker/Info


-or-


 

Live Flight TrackerFlight Track Log ✈ PDT4207 ✈ 28-Oct-2013 ✈ KPHL - KBGM

Flight Track Log - Related Links

Times and Time Zones

All times are in EDT time to prevent confusion due to time zone crossing. See the PDT4207 flight status page for this flight to view local times or setup timezone preferences in your user account.

Time Position Orientation Groundspeed Altitude Reporting Facility
EDT Latitude Longitude Course Direction KTS MPH feet Rate Location/Type
09:35PM 39.9000 -75.2333 351° North 113 130 700  Level Philadelphia TRACON
09:36PM 39.9333 -75.2667 323° Northwest 164 189 2,100 1,020 Climbing Philadelphia TRACON
09:37PM 39.9833 -75.2667 360° North 175 201 3,000 420 Climbing Philadelphia TRACON
09:38PM 40.0926 -75.3083 348° North  Level Estimated
09:38PM 40.0333 -75.2833 346° North 222 255 3,000  Level Philadelphia TRACON
09:39PM 40.1484 -75.3200 351° North  Level FlightAware Approximate
09:39PM 40.1000 -75.3000 349° North 226 260 3,000  Level Philadelphia TRACON
09:40PM 40.2043 -75.3317 351° North  Level FlightAware Approximate
09:41PM 40.2020 -75.3242 350° North  Level FlightAware Approximate
09:48PM 40.5916 -75.4187 349° North  Level FlightAware Approximate
09:49PM 40.6472 -75.4326 349° North  Level FlightAware Approximate
09:50PM 40.7028 -75.4465 349° North  Level FlightAware Approximate
09:51PM 40.7591 -75.4500 North  Level FlightAware Approximate
09:52PM 40.8157 -75.4500 North  Level FlightAware Approximate
09:53PM 40.8723 -75.4500 North  Level FlightAware Approximate
09:54PM 40.9288 -75.4500 North  Level FlightAware Approximate
09:55PM 40.9854 -75.4500 North  Level FlightAware Approximate
09:56PM 41.0420 -75.4507 357° North  Level FlightAware Approximate
09:57PM 41.0984 -75.4550 357° North  Level FlightAware Approximate
09:58PM 41.1549 -75.4593 357° North  Level FlightAware Approximate
09:59PM 41.2114 -75.4637 357° North  Level FlightAware Approximate
10:00PM 41.2679 -75.4667 North  Level FlightAware Approximate
10:01PM 41.3245 -75.4667 North  Level FlightAware Approximate
10:02PM 41.3811 -75.4667 North  Level FlightAware Approximate
10:03PM 41.4376 -75.4667 North  Level FlightAware Approximate
10:04PM 41.4888 -75.4886 323° Northwest  Level FlightAware Approximate
10:05PM 41.5341 -75.5339 323° Northwest  Level FlightAware Approximate
10:06PM 41.5794 -75.5791 323° Northwest  Level FlightAware Approximate
10:07PM 41.6247 -75.6245 323° Northwest  Level FlightAware Approximate
10:08PM 41.6700 -75.6698 323° Northwest  Level FlightAware Approximate
10:09PM 41.7152 -75.7152 323° Northwest  Level FlightAware Approximate
10:10PM 41.7616 -75.7588 325° Northwest  Level FlightAware Approximate
10:11PM 41.8079 -75.8023 325° Northwest  Level FlightAware Approximate
10:12PM 41.8543 -75.8458 325° Northwest  Level FlightAware Approximate
10:13PM 41.9006 -75.8894 325° Northwest  Level FlightAware Approximate
10:14PM 41.9469 -75.9331 325° Northwest  Level FlightAware Approximate
10:15PM 41.9932 -75.9769 325° Northwest  Level FlightAware Approximate